Data for 06/14/2014

Time Sea-Level Adjusted Pressure Absolute Pressure Temperature Relative Humidity Dew Point   
(mb) (inHg) (mb) (inHg) (C) (F) (%) (C) (F)
00:05 1015 29.97 844 24.92 4.8 40.7 89 3.2 37.8
00:10 1015 29.97 844 24.92 4.8 40.7 91 3.4 38.2
00:15 1014 29.94 844 24.92 4.8 40.7 90 3.4 38.1
00:20 1014 29.94 844 24.92 4.8 40.7 90 3.3 37.9
00:25 1014 29.94 844 24.92 4.8 40.7 90 3.3 37.9
00:30 1014 29.94 844 24.92 4.9 40.8 91 3.4 38.2
00:35 1014 29.94 844 24.92 4.9 40.8 90 3.4 38.1
00:40 1014 29.94 843 24.89 5 41 90 3.4 38.2
00:45 1014 29.94 843 24.89 5 41 90 3.5 38.2
00:50 1014 29.94 843 24.89 5.1 41.1 90 3.6 38.4
00:55 1014 29.94 843 24.89 5.1 41.1 88 3.3 37.9
01:00 1014 29.94 843 24.89 5 41 86 2.9 37.2
01:05 1014 29.94 843 24.89 5.1 41.2 85 2.8 37.1
01:10 1014 29.94 843 24.89 5.1 41.2 84 2.7 36.8
01:15 1014 29.94 844 24.92 5.2 41.4 83 2.6 36.8
01:20 1014 29.94 844 24.92 5.4 41.6 82 2.5 36.5
01:25 1014 29.94 844 24.92 5.4 41.6 83 2.8 37
01:30 1014 29.94 844 24.92 5.3 41.5 84 2.8 37.1
01:35 1014 29.94 844 24.92 5.2 41.3 83 2.6 36.7
01:40 1014 29.94 844 24.92 5.2 41.4 84 2.7 36.9
01:45 1014 29.94 844 24.92 5.2 41.4 83 2.6 36.7
01:50 1014 29.94 844 24.92 5.2 41.4 83 2.6 36.6
01:55 1014 29.94 844 24.92 5.3 41.5 84 2.8 37.1
02:00 1014 29.94 843 24.89 5.3 41.5 85 2.9 37.3
02:05 1014 29.94 843 24.89 5.1 41.2 86 2.9 37.3
02:10 1014 29.94 843 24.89 5 41.1 87 3.1 37.5
02:15 1014 29.94 843 24.89 5 41.1 88 3.2 37.7
02:20 1014 29.94 843 24.89 5 41 88 3.3 37.9
02:25 1014 29.94 843 24.89 5 41 88 3.2 37.7
02:30 1014 29.94 843 24.89 5.3 41.5 82 2.5 36.5
02:35 1014 29.94 843 24.89 5.7 42.2 82 2.8 37
02:40 1014 29.94 843 24.89 5.7 42.2 83 3 37.3
02:45 1014 29.94 843 24.89 5.5 41.9 84 3 37.3
02:50 1014 29.94 843 24.89 5.5 41.9 82 2.6 36.7
02:55 1014 29.94 843 24.89 5.4 41.8 83 2.7 36.9
03:00 1014 29.94 843 24.89 5.3 41.6 84 2.8 37.1
03:05 1014 29.94 843 24.89 5.2 41.3 84 2.7 36.9
03:10 1014 29.94 843 24.89 5.1 41.3 87 3.2 37.7
03:15 1014 29.94 843 24.89 5.1 41.1 85 2.7 36.9
03:20 1014 29.94 843 24.89 5.1 41.2 85 2.8 37
03:25 1014 29.94 843 24.89 5.1 41.2 85 2.8 37.1
03:30 1014 29.94 843 24.89 5 41 86 2.9 37.2
03:35 1014 29.94 843 24.89 4.8 40.7 88 3 37.3
03:40 1014 29.94 843 24.89 4.8 40.6 87 2.8 37.1
03:45 1014 29.94 843 24.89 4.8 40.7 86 2.7 36.8
03:50 1014 29.94 843 24.89 4.9 40.9 85 2.6 36.6
03:55 1014 29.94 843 24.89 5 41.1 86 2.9 37.3
04:00 1014 29.94 843 24.89 5.2 41.3 86 2.9 37.3
04:05 1014 29.94 843 24.89 5.2 41.4 87 3.2 37.7
04:10 1014 29.94 843 24.89 5.2 41.3 87 3.3 37.9
04:15 1014 29.94 843 24.89 5.2 41.4 86 3.1 37.5
04:20 1014 29.94 843 24.89 5.2 41.4 86 3.1 37.5
04:25 1014 29.94 843 24.89 5.3 41.5 87 3.2 37.8
04:30 1014 29.94 843 24.89 5.4 41.7 86 3.2 37.8
04:35 1014 29.94 843 24.89 5.5 41.9 86 3.4 38.1
04:40 1014 29.94 843 24.89 5.5 41.9 87 3.5 38.3
04:45 1014 29.94 843 24.89 5.6 42 87 3.6 38.5
04:50 1014 29.94 843 24.89 5.6 42 87 3.5 38.3
04:55 1014 29.94 843 24.89 5.5 42 86 3.5 38.2
05:00 1014 29.94 844 24.92 5.6 42 87 3.5 38.3
05:05 1014 29.94 844 24.92 5.6 42 85 3.3 38
05:10 1014 29.94 844 24.92 5.6 42.1 85 3.2 37.8
05:15 1014 29.94 844 24.92 5.6 42.1 84 3.2 37.7
05:20 1014 29.94 844 24.92 5.6 42.2 85 3.3 37.9
05:25 1014 29.94 844 24.92 5.7 42.2 85 3.3 37.9
05:30 1014 29.94 844 24.92 5.7 42.2 85 3.4 38
05:35 1015 29.97 844 24.92 5.7 42.2 84 3.2 37.8
05:40 1015 29.97 844 24.92 5.6 42.2 85 3.3 38
05:45 1015 29.97 844 24.92 5.7 42.3 86 3.5 38.3
05:50 1015 29.97 844 24.92 5.8 42.4 85 3.4 38.2
05:55 1015 29.97 844 24.92 5.8 42.4 85 3.5 38.3
06:00 1015 29.97 844 24.92 5.9 42.6 84 3.3 37.9
06:05 1015 29.97 844 24.92 5.9 42.6 84 3.4 38.1
06:10 1015 29.97 844 24.92 6 42.8 84 3.5 38.3
06:15 1015 29.97 844 24.92 6 42.9 84 3.5 38.4
06:20 1015 29.97 844 24.92 5.9 42.7 84 3.4 38.1
06:25 1015 29.97 844 24.92 5.8 42.4 82 2.9 37.2
06:30 1015 29.97 844 24.92 5.8 42.4 81 2.7 36.8
06:35 1014 29.94 844 24.92 5.7 42.3 80 2.6 36.7
06:40 1014 29.94 844 24.92 5.9 42.7 80 2.8 37.1
06:45 1014 29.94 844 24.92 6.2 43.1 79 2.7 36.9
06:50 1014 29.94 844 24.92 6.2 43.2 77 2.5 36.5
06:55 1014 29.94 844 24.92 6.3 43.3 78 2.8 37
07:00 1015 29.97 844 24.92 6.3 43.3 78 2.6 36.7
07:05 1015 29.97 844 24.92 6.2 43.1 80 2.9 37.3
07:10 1015 29.97 844 24.92 6.2 43.1 76 2.2 35.9
07:15 1015 29.97 844 24.92 6.1 42.9 78 2.5 36.5
07:20 1014 29.94 844 24.92 6.2 43.2 76 2.3 36.2
07:25 1014 29.94 844 24.92 6.2 43.1 75 2.1 35.7
07:30 1014 29.94 844 24.92 6.3 43.4 76 2.4 36.2
07:35 1014 29.94 843 24.89 6.4 43.5 74 2.1 35.8
07:40 1014 29.94 843 24.89 6.7 44 73 2.2 36
07:45 1014 29.94 843 24.89 7.2 44.9 66 1.4 34.5
07:50 1014 29.94 843 24.89 7.6 45.7 66 1.6 34.9
07:55 1014 29.94 843 24.89 7.9 46.3 62 1 33.8
08:00 1014 29.94 843 24.89 7.9 46.2 60 0.6 33.1
08:05 1014 29.94 843 24.89 8 46.4 63 1.5 34.7
08:10 1014 29.94 844 24.92 7.7 45.9 63 1.2 34.1
08:15 1014 29.94 844 24.92 7.8 46 63 1.2 34.1
08:20 1014 29.94 844 24.92 7.8 46.1 61 0.9 33.5
08:25 1014 29.94 844 24.92 8.1 46.5 61 0.9 33.7
08:30 1014 29.94 844 24.92 8.4 47.1 59 0.8 33.5
08:35 1014 29.94 844 24.92 8.6 47.5 59 1.1 33.9
08:40 1014 29.94 844 24.92 9.5 49.1 56 1.3 34.4
08:45 1014 29.94 844 24.92 10 49.9 54 1.3 34.3
08:50 1014 29.94 844 24.92 9.8 49.7 54 1.1 34
08:55 1014 29.94 844 24.92 9.7 49.4 55 1 33.8
09:00 1014 29.94 844 24.92 10.2 50.4 54 1.4 34.5
09:05 1014 29.94 844 24.92 10.2 50.3 56 1.9 35.5
09:10 1014 29.94 844 24.92 9.4 48.8 57 1.3 34.4
09:15 1014 29.94 844 24.92 9.4 48.8 55 0.7 33.3
09:20 1014 29.94 844 24.92 9.4 49 55 0.9 33.5
09:25 1014 29.94 844 24.92 9.7 49.4 53 0.5 33
09:30 1014 29.94 843 24.89 10.6 51.1 48 0.2 32.4
09:35 1014 29.94 843 24.89 11.4 52.6 48 0.9 33.6
09:40 1014 29.94 843 24.89 11 51.9 52 1.5 34.7
09:45 1014 29.94 843 24.89 10.5 50.9 57 2.3 36.1
09:50 1014 29.94 843 24.89 9.9 49.8 56 1.6 34.9
09:55 1014 29.94 843 24.89 9.8 49.7 55 1.4 34.5
10:00 1014 29.94 843 24.89 10.1 50.2 54 1.1 34
10:05 1014 29.94 843 24.89 10.5 50.8 50 0.5 32.8
10:10 1014 29.94 843 24.89 11.4 52.6 44 -0.3 31.4
10:15 1014 29.94 843 24.89 11.8 53.3 44 0 32
10:20 1014 29.94 843 24.89 11.5 52.8 44 -0.2 31.6
10:25 1014 29.94 843 24.89 11.7 53.1 42 -0.8 30.6
10:30 1014 29.94 843 24.89 11.4 52.5 43 -0.6 30.8
10:35 1014 29.94 843 24.89 11.1 52 47 0.1 32.2
10:40 1014 29.94 843 24.89 10.9 51.7 46 -0.1 31.8
10:45 1014 29.94 843 24.89 10.8 51.4 46 -0.4 31.4
10:50 1014 29.94 843 24.89 11.1 51.9 44 -0.7 30.8
10:55 1014 29.94 843 24.89 11.1 52 45 -0.3 31.4
11:00 1014 29.94 843 24.89 11.7 53 45 0.2 32.3
11:05 1014 29.94 843 24.89 11.7 53.1 45 0.3 32.5
11:10 1014 29.94 843 24.89 11.3 52.3 45 -0.1 31.9
11:15 1014 29.94 843 24.89 10.8 51.5 45 -0.6 30.9
11:20 1014 29.94 843 24.89 10.9 51.5 45 -0.7 30.7
11:25 1014 29.94 843 24.89 10.7 51.3 46 -0.5 31.1
11:30 1014 29.94 843 24.89 10.9 51.5 45 -0.6 31
11:35 1014 29.94 843 24.89 10.8 51.5 44 -0.9 30.3
11:40 1014 29.94 843 24.89 11.1 51.9 46 -0.2 31.7
11:45 1014 29.94 843 24.89 11 51.8 42 -1.2 29.8
11:50 1014 29.94 844 24.92 10.8 51.5 45 -0.5 31.2
11:55 1014 29.94 843 24.89 10.9 51.6 46 -0.4 31.3
12:00 1014 29.94 843 24.89 11 51.8 45 -0.5 31.1
12:05 1014 29.94 843 24.89 10.8 51.4 45 -0.7 30.8
12:10 1014 29.94 843 24.89 11.3 52.3 41 -1.6 29.2
12:15 1014 29.94 843 24.89 11.6 52.8 41 -1.3 29.7
12:20 1014 29.94 843 24.89 11.8 53.2 41 -1 30.2
12:25 1014 29.94 843 24.89 12.1 53.7 40 -1.1 30
12:30 1014 29.94 843 24.89 12.6 54.6 38 -1.2 29.8
12:35 1014 29.94 843 24.89 13 55.3 36 -1.6 29.1
12:40 1014 29.94 843 24.89 13.7 56.6 35 -1.3 29.7
12:45 1014 29.94 843 24.89 13.8 56.8 35 -1.5 29.2
12:50 1014 29.94 843 24.89 13.9 56.9 35 -1.2 29.9
12:55 1014 29.94 843 24.89 13.6 56.6 36 -1.1 30
13:00 1014 29.94 843 24.89 13.8 56.8 34 -1.9 28.7
13:05 1014 29.94 844 24.92 13.5 56.2 48 2.7 36.9
13:10 1015 29.97 844 24.92 11.2 52.1 57 2.9 37.3
13:15 1015 29.97 844 24.92 10.1 50.2 68 4.4 40
13:20 1015 29.97 844 24.92 9.6 49.2 64 3.1 37.6
13:25 1015 29.97 844 24.92 9.8 49.6 60 2.3 36.2
13:30 1015 29.97 844 24.92 9.9 49.8 61 2.8 37.1
13:35 1015 29.97 844 24.92 10 50 63 3.3 38
13:40 1015 29.97 844 24.92 10.1 50.2 62 3.1 37.7
13:45 1015 29.97 844 24.92 10.1 50.3 61 3 37.3
13:50 1015 29.97 844 24.92 9.9 49.8 63 3.1 37.6
13:55 1015 29.97 844 24.92 10 49.9 63 3.2 37.7
14:00 1015 29.97 844 24.92 9.9 49.9 56 1.7 35.1
14:05 1015 29.97 844 24.92 9.8 49.7 57 1.7 35
14:10 1015 29.97 844 24.92 10 49.9 52 0.6 33
14:15 1015 29.97 844 24.92 10.4 50.8 52 0.9 33.7
14:20 1015 29.97 845 24.95 10.5 50.9 58 2.7 36.8
14:25 1015 29.97 845 24.95 9.6 49.4 63 2.9 37.2
14:30 1015 29.97 845 24.95 8.9 48 66 2.9 37.3
14:35 1016 30 845 24.95 8.8 47.8 68 3.3 37.9
14:40 1016 30 845 24.95 8.7 47.7 70 3.6 38.5
14:45 1016 30 845 24.95 8.9 48 70 3.8 38.9
14:50 1016 30 845 24.95 8.6 47.5 72 3.8 38.9
14:55 1016 30 845 24.95 8.2 46.8 73 3.7 38.6
15:00 1016 30 845 24.95 8.2 46.8 71 3.4 38.1
15:05 1016 30 845 24.95 8.6 47.4 75 4.4 40
15:10 1016 30 845 24.95 8.7 47.6 74 4.4 39.9
15:15 1016 30 845 24.95 8.6 47.6 73 4 39.2
15:20 1016 30 845 24.95 8.5 47.4 74 4.1 39.5
15:25 1016 30 845 24.95 8.5 47.3 76 4.5 40.2
15:30 1015 29.97 845 24.95 8.8 47.8 70 3.7 38.6
15:35 1015 29.97 845 24.95 9.1 48.4 72 4.3 39.8
15:40 1015 29.97 845 24.95 9.6 49.3 69 4.2 39.6
15:45 1015 29.97 845 24.95 9.8 49.7 68 4.2 39.5
15:50 1015 29.97 845 24.95 9.9 49.8 69 4.5 40.2
15:55 1015 29.97 844 24.92 9.8 49.6 69 4.4 39.9
16:00 1015 29.97 844 24.92 9.8 49.6 68 4.3 39.7
16:05 1015 29.97 844 24.92 9.6 49.2 69 4.2 39.6
16:10 1015 29.97 844 24.92 9.6 49.4 70 4.4 39.9
16:15 1015 29.97 844 24.92 9.8 49.6 66 3.7 38.7
16:20 1015 29.97 844 24.92 9.7 49.4 65 3.5 38.2
16:25 1015 29.97 844 24.92 9.7 49.5 68 4.2 39.5
16:30 1015 29.97 844 24.92 10.6 51.1 61 3.5 38.4
16:35 1015 29.97 844 24.92 11.3 52.3 56 2.9 37.2
16:40 1015 29.97 844 24.92 11.6 52.9 54 2.8 37
16:45 1015 29.97 844 24.92 11.2 52.1 58 3.3 38
16:50 1015 29.97 844 24.92 11.6 52.8 55 2.9 37.1
16:55 1015 29.97 844 24.92 12.4 54.2 50 2.2 36
17:00 1015 29.97 844 24.92 12.7 54.8 51 2.8 37.1
17:05 1015 29.97 844 24.92 12.8 55.1 51 3.1 37.5
17:10 1015 29.97 844 24.92 12.5 54.5 52 3 37.3
17:15 1015 29.97 844 24.92 12.8 55 50 2.6 36.8
17:20 1015 29.97 844 24.92 12.4 54.2 55 3.5 38.4
17:25 1015 29.97 844 24.92 12.5 54.4 52 3 37.4
17:30 1014 29.94 844 24.92 12.8 55.1 52 3.3 38
17:35 1014 29.94 844 24.92 12.8 55 52 3.3 38
17:40 1014 29.94 844 24.92 12.2 54 54 3.3 38
17:45 1014 29.94 844 24.92 12 53.6 53 2.7 36.8
17:50 1014 29.94 844 24.92 11.9 53.4 52 2.3 36.2
17:55 1014 29.94 844 24.92 12.2 54 51 2.4 36.3
18:00 1014 29.94 844 24.92 11.7 53.1 51 2 35.6
18:05 1014 29.94 844 24.92 12.1 53.8 51 2.4 36.4
18:10 1014 29.94 844 24.92 12.4 54.3 53 3.1 37.6
18:15 1014 29.94 844 24.92 12.3 54.2 50 2.2 35.9
18:20 1014 29.94 844 24.92 12.7 54.9 51 2.9 37.2
18:25 1014 29.94 844 24.92 12.2 54 51 2.6 36.6
18:30 1014 29.94 844 24.92 12.2 53.9 52 2.6 36.7
18:35 1014 29.94 844 24.92 12.2 53.9 52 2.7 36.8
18:40 1014 29.94 844 24.92 12.1 53.8 51 2.4 36.3
18:45 1014 29.94 844 24.92 12.4 54.4 50 2.4 36.4
18:50 1014 29.94 844 24.92 12.5 54.4 50 2.4 36.4
18:55 1014 29.94 844 24.92 12.5 54.4 51 2.8 37
19:00 1015 29.97 844 24.92 12.4 54.3 52 2.8 37
19:05 1015 29.97 844 24.92 12.2 54 52 2.6 36.7
19:10 1015 29.97 844 24.92 12 53.7 52 2.7 36.8
19:15 1015 29.97 844 24.92 11.8 53.3 53 2.5 36.6
19:20 1015 29.97 844 24.92 11.7 53 52 2.3 36.2
19:25 1015 29.97 844 24.92 11.6 52.8 54 2.5 36.5
19:30 1015 29.97 844 24.92 11.5 52.6 56 3 37.4
19:35 1015 29.97 844 24.92 11.3 52.4 58 3.3 37.9
19:40 1015 29.97 844 24.92 11.2 52.1 58 3.4 38.1
19:45 1015 29.97 844 24.92 11 51.9 61 3.7 38.7
19:50 1015 29.97 844 24.92 10.8 51.4 61 3.7 38.6
19:55 1015 29.97 844 24.92 10.7 51.3 61 3.6 38.4
20:00 1015 29.97 844 24.92 10.6 51.1 63 3.9 39.1
20:05 1015 29.97 844 24.92 10.5 50.9 64 4 39.2
20:10 1015 29.97 844 24.92 10.4 50.7 64 4 39.1
20:15 1015 29.97 844 24.92 10.2 50.4 65 4 39.2
20:20 1015 29.97 844 24.92 10.1 50.3 66 4 39.2
20:25 1015 29.97 844 24.92 10 50 67 4.2 39.5
20:30 1015 29.97 845 24.95 9.9 49.8 68 4.3 39.7
20:35 1015 29.97 845 24.95 9.8 49.6 69 4.4 40
20:40 1015 29.97 845 24.95 9.7 49.5 71 4.6 40.3
20:45 1015 29.97 845 24.95 9.6 49.2 71 4.6 40.2
20:50 1016 30 845 24.95 9.4 49 72 4.7 40.5
20:55 1016 30 845 24.95 9.3 48.8 75 5.2 41.3
21:00 1016 30 845 24.95 9.2 48.5 77 5.3 41.5
21:05 1015 29.97 845 24.95 9.1 48.3 77 5.3 41.5
21:10 1015 29.97 845 24.95 9 48.2 77 5.2 41.4
21:15 1016 30 845 24.95 8.9 48 78 5.3 41.5
21:20 1016 30 845 24.95 8.7 47.6 79 5.2 41.4
21:25 1016 30 845 24.95 8.6 47.4 79 5.1 41.2
21:30 1016 30 845 24.95 8.5 47.3 79 5.1 41.1
21:35 1015 29.97 845 24.95 8.6 47.6 78 5.1 41.2
21:40 1015 29.97 845 24.95 8.8 47.8 78 5.1 41.2
21:45 1015 29.97 845 24.95 8.8 47.9 78 5.1 41.2
21:50 1015 29.97 845 24.95 8.8 47.9 78 5.2 41.3
21:55 1015 29.97 845 24.95 8.9 48 78 5.2 41.4
22:00 1015 29.97 845 24.95 8.9 48 77 5.1 41.2
22:05 1015 29.97 845 24.95 8.9 48 77 5.1 41.1
22:10 1015 29.97 845 24.95 8.9 48 77 5.1 41.2
22:15 1015 29.97 845 24.95 8.8 47.8 77 4.9 40.9
22:20 1015 29.97 844 24.92 8.7 47.7 77 5 41
22:25 1015 29.97 844 24.92 8.6 47.5 77 4.7 40.5
22:30 1015 29.97 844 24.92 8.6 47.4 76 4.6 40.4
22:35 1015 29.97 844 24.92 8.6 47.4 78 5 41
22:40 1015 29.97 844 24.92 8.4 47.2 78 4.8 40.6
22:45 1015 29.97 844 24.92 8.4 47 79 5 41
22:50 1015 29.97 844 24.92 8.2 46.8 79 4.9 40.8
22:55 1015 29.97 844 24.92 8.2 46.8 79 4.7 40.5
23:00 1015 29.97 844 24.92 8.2 46.8 79 4.7 40.5
23:05 1015 29.97 844 24.92 8.3 46.9 78 4.6 40.3
23:10 1015 29.97 844 24.92 8.3 46.9 78 4.7 40.4
23:15 1015 29.97 844 24.92 8.2 46.7 78 4.7 40.4
23:20 1015 29.97 844 24.92 8.1 46.6 78 4.5 40.1
23:25 1015 29.97 844 24.92 8.2 46.7 77 4.4 40
23:30 1015 29.97 844 24.92 8.1 46.6 77 4.4 40
23:35 1015 29.97 844 24.92 8 46.4 78 4.4 40
23:40 1015 29.97 844 24.92 7.9 46.2 77 4.1 39.4
23:45 1015 29.97 844 24.92 7.9 46.1 77 4.1 39.4
23:50 1015 29.97 844 24.92 7.9 46.1 76 3.9 39
23:55 1015 29.97 844 24.92 7.7 45.9 76 3.8 38.8
24:00 1015 29.97 844 24.92 7.6 45.7 76 3.6 38.5